sensor_id;sensor_type;location;lat;lon;timestamp;pressure;altitude;pressure_sealevel;temperature;humidity
49827;BME280;35715;51.570;6.036;2023-02-15T00:01:06;102804.09;;;5.13;88.81
49827;BME280;35715;51.570;6.036;2023-02-15T00:03:31;102810.50;;;5.17;88.00
49827;BME280;35715;51.570;6.036;2023-02-15T00:05:56;102807.38;;;5.12;88.67
49827;BME280;35715;51.570;6.036;2023-02-15T00:08:22;102807.38;;;5.12;89.11
49827;BME280;35715;51.570;6.036;2023-02-15T00:10:47;102808.09;;;5.04;89.16
49827;BME280;35715;51.570;6.036;2023-02-15T00:13:13;102812.47;;;5.05;89.07
49827;BME280;35715;51.570;6.036;2023-02-15T00:15:43;102806.28;;;5.10;88.28
49827;BME280;35715;51.570;6.036;2023-02-15T00:18:08;102802.25;;;5.05;88.68
49827;BME280;35715;51.570;6.036;2023-02-15T00:20:34;102802.25;;;5.05;88.44
49827;BME280;35715;51.570;6.036;2023-02-15T00:22:59;102797.50;;;5.15;87.28
49827;BME280;35715;51.570;6.036;2023-02-15T00:25:25;102801.19;;;5.10;87.22
49827;BME280;35715;51.570;6.036;2023-02-15T00:27:50;102804.81;;;5.12;86.99
49827;BME280;35715;51.570;6.036;2023-02-15T00:30:18;102792.22;;;5.14;87.12
49827;BME280;35715;51.570;6.036;2023-02-15T00:32:43;102789.13;;;5.17;86.67
49827;BME280;35715;51.570;6.036;2023-02-15T00:35:08;102795.84;;;5.16;86.39
49827;BME280;35715;51.570;6.036;2023-02-15T00:40:02;102786.19;;;5.21;85.63
49827;BME280;35715;51.570;6.036;2023-02-15T00:42:27;102792.03;;;5.20;85.70
49827;BME280;35715;51.570;6.036;2023-02-15T00:44:52;102782.88;;;5.14;85.63
49827;BME280;35715;51.570;6.036;2023-02-15T00:47:18;102788.53;;;5.05;86.97
49827;BME280;35715;51.570;6.036;2023-02-15T00:49:43;102787.44;;;4.95;87.97
49827;BME280;35715;51.570;6.036;2023-02-15T00:52:09;102783.75;;;4.86;88.96
49827;BME280;35715;51.570;6.036;2023-02-15T00:54:34;102785.34;;;4.71;90.30
49827;BME280;35715;51.570;6.036;2023-02-15T00:57:01;102781.88;;;4.64;90.06
49827;BME280;35715;51.570;6.036;2023-02-15T00:59:27;102778.19;;;4.61;90.65
49827;BME280;35715;51.570;6.036;2023-02-15T01:01:52;102780.22;;;4.64;89.92
49827;BME280;35715;51.570;6.036;2023-02-15T01:04:17;102778.03;;;4.67;88.88
49827;BME280;35715;51.570;6.036;2023-02-15T01:06:43;102764.53;;;4.68;89.24
49827;BME280;35715;51.570;6.036;2023-02-15T01:09:09;102773.25;;;4.63;89.68
49827;BME280;35715;51.570;6.036;2023-02-15T01:11:34;102770.50;;;4.61;89.17
49827;BME280;35715;51.570;6.036;2023-02-15T01:13:59;102773.63;;;4.59;89.00
49827;BME280;35715;51.570;6.036;2023-02-15T01:16:34;102781.28;;;4.52;89.66
49827;BME280;35715;51.570;6.036;2023-02-15T01:18:59;102765.91;;;4.44;89.80
49827;BME280;35715;51.570;6.036;2023-02-15T01:21:24;102767.84;;;4.33;90.96
49827;BME280;35715;51.570;6.036;2023-02-15T01:23:50;102772.19;;;4.26;91.28
49827;BME280;35715;51.570;6.036;2023-02-15T01:26:24;102769.06;;;4.22;91.96
49827;BME280;35715;51.570;6.036;2023-02-15T01:28:49;102764.09;;;4.16;91.71
49827;BME280;35715;51.570;6.036;2023-02-15T01:31:15;102754.47;;;4.21;91.31
49827;BME280;35715;51.570;6.036;2023-02-15T01:33:41;102752.59;;;4.13;91.31
49827;BME280;35715;51.570;6.036;2023-02-15T01:36:08;102755.50;;;4.08;91.28
49827;BME280;35715;51.570;6.036;2023-02-15T01:38:34;102752.84;;;4.21;90.09
49827;BME280;35715;51.570;6.036;2023-02-15T01:40:59;102754.47;;;4.21;89.47
49827;BME280;35715;51.570;6.036;2023-02-15T01:43:46;102752.09;;;4.15;90.01
49827;BME280;35715;51.570;6.036;2023-02-15T01:46:14;102750.09;;;4.20;89.68
49827;BME280;35715;51.570;6.036;2023-02-15T01:48:42;102742.41;;;4.13;90.23
49827;BME280;35715;51.570;6.036;2023-02-15T01:51:09;102747.66;;;4.07;91.29
49827;BME280;35715;51.570;6.036;2023-02-15T01:53:35;102743.28;;;4.06;90.48
49827;BME280;35715;51.570;6.036;2023-02-15T01:59:04;102739.59;;;3.97;91.63
49827;BME280;35715;51.570;6.036;2023-02-15T02:01:30;102729.50;;;3.91;92.21
49827;BME280;35715;51.570;6.036;2023-02-15T02:04:04;102736.44;;;3.92;91.58
49827;BME280;35715;51.570;6.036;2023-02-15T02:06:33;102728.47;;;4.03;90.55
49827;BME280;35715;51.570;6.036;2023-02-15T02:09:00;102728.78;;;3.92;91.10
49827;BME280;35715;51.570;6.036;2023-02-15T02:11:25;102720.91;;;3.90;91.73
49827;BME280;35715;51.570;6.036;2023-02-15T02:13:51;102728.38;;;3.82;91.95
49827;BME280;35715;51.570;6.036;2023-02-15T02:19:10;102728.09;;;4.00;90.09
49827;BME280;35715;51.570;6.036;2023-02-15T02:29:23;102724.41;;;3.91;89.80
49827;BME280;35715;51.570;6.036;2023-02-15T02:36:55;102714.84;;;3.76;90.65
49827;BME280;35715;51.570;6.036;2023-02-15T02:49:34;102705.03;;;3.86;89.60
49827;BME280;35715;51.570;6.036;2023-02-15T02:52:01;102696.22;;;3.77;89.89
49827;BME280;35715;51.570;6.036;2023-02-15T02:54:26;102695.97;;;3.68;90.81
49827;BME280;35715;51.570;6.036;2023-02-15T02:56:52;102693.25;;;3.66;90.69
49827;BME280;35715;51.570;6.036;2023-02-15T02:59:20;102687.94;;;3.58;91.67
49827;BME280;35715;51.570;6.036;2023-02-15T03:01:51;102689.16;;;3.54;92.16
49827;BME280;35715;51.570;6.036;2023-02-15T03:04:20;102685.75;;;3.61;91.21
49827;BME280;35715;51.570;6.036;2023-02-15T03:09:21;102687.88;;;3.50;91.57
49827;BME280;35715;51.570;6.036;2023-02-15T03:11:48;102685.91;;;3.55;91.57
49827;BME280;35715;51.570;6.036;2023-02-15T03:14:14;102681.66;;;3.48;91.26
49827;BME280;35715;51.570;6.036;2023-02-15T03:16:41;102683.66;;;3.51;91.35
49827;BME280;35715;51.570;6.036;2023-02-15T03:19:09;102674.22;;;3.57;90.71
49827;BME280;35715;51.570;6.036;2023-02-15T03:24:02;102664.19;;;3.51;90.39
49827;BME280;35715;51.570;6.036;2023-02-15T03:26:29;102659.59;;;3.49;90.78
49827;BME280;35715;51.570;6.036;2023-02-15T03:28:55;102665.03;;;3.45;90.60
49827;BME280;35715;51.570;6.036;2023-02-15T03:31:22;102659.81;;;3.50;90.18
49827;BME280;35715;51.570;6.036;2023-02-15T03:34:00;102663.31;;;3.58;89.59
49827;BME280;35715;51.570;6.036;2023-02-15T03:42:08;102663.88;;;3.35;90.59
49827;BME280;35715;51.570;6.036;2023-02-15T03:44:39;102671.16;;;3.32;90.74
49827;BME280;35715;51.570;6.036;2023-02-15T03:47:15;102660.63;;;3.36;90.25
49827;BME280;35715;51.570;6.036;2023-02-15T03:50:15;102657.69;;;3.33;89.95
49827;BME280;35715;51.570;6.036;2023-02-15T03:52:52;102654.69;;;3.23;91.25
49827;BME280;35715;51.570;6.036;2023-02-15T03:55:17;102651.84;;;3.07;92.30
49827;BME280;35715;51.570;6.036;2023-02-15T03:57:43;102650.53;;;3.04;92.36
49827;BME280;35715;51.570;6.036;2023-02-15T04:00:27;102652.31;;;2.97;92.32
49827;BME280;35715;51.570;6.036;2023-02-15T04:05:40;102650.09;;;2.93;93.35
49827;BME280;35715;51.570;6.036;2023-02-15T04:08:05;102649.50;;;2.89;93.76
49827;BME280;35715;51.570;6.036;2023-02-15T04:10:31;102651.22;;;2.95;93.01
49827;BME280;35715;51.570;6.036;2023-02-15T04:13:15;102643.50;;;2.88;93.41
49827;BME280;35715;51.570;6.036;2023-02-15T04:15:40;102643.22;;;2.79;94.39
49827;BME280;35715;51.570;6.036;2023-02-15T04:18:24;102640.75;;;2.87;93.79
49827;BME280;35715;51.570;6.036;2023-02-15T04:21:08;102633.91;;;2.73;94.21
49827;BME280;35715;51.570;6.036;2023-02-15T04:23:52;102636.66;;;2.74;94.65
49827;BME280;35715;51.570;6.036;2023-02-15T04:26:37;102636.28;;;2.78;93.80
49827;BME280;35715;51.570;6.036;2023-02-15T04:29:02;102629.50;;;2.72;94.19
49827;BME280;35715;51.570;6.036;2023-02-15T04:31:27;102635.66;;;2.66;94.54
49827;BME280;35715;51.570;6.036;2023-02-15T04:33:52;102635.66;;;2.66;94.61
49827;BME280;35715;51.570;6.036;2023-02-15T04:36:17;102630.50;;;2.59;94.93
49827;BME280;35715;51.570;6.036;2023-02-15T04:38:43;102631.91;;;2.57;95.22
49827;BME280;35715;51.570;6.036;2023-02-15T04:41:08;102634.34;;;2.63;94.48
49827;BME280;35715;51.570;6.036;2023-02-15T04:43:35;102638.53;;;2.62;94.19
49827;BME280;35715;51.570;6.036;2023-02-15T04:46:00;102633.81;;;2.65;93.57
49827;BME280;35715;51.570;6.036;2023-02-15T04:48:26;102636.19;;;2.64;93.50
49827;BME280;35715;51.570;6.036;2023-02-15T04:50:51;102639.03;;;2.60;94.42
49827;BME280;35715;51.570;6.036;2023-02-15T04:53:16;102633.50;;;2.70;94.16
49827;BME280;35715;51.570;6.036;2023-02-15T04:55:43;102633.75;;;2.78;93.35
49827;BME280;35715;51.570;6.036;2023-02-15T04:58:08;102633.94;;;2.80;93.00
49827;BME280;35715;51.570;6.036;2023-02-15T05:00:33;102636.50;;;2.80;92.65
49827;BME280;35715;51.570;6.036;2023-02-15T05:02:58;102638.44;;;2.75;92.93
49827;BME280;35715;51.570;6.036;2023-02-15T05:05:24;102637.34;;;2.73;92.80
49827;BME280;35715;51.570;6.036;2023-02-15T05:07:49;102635.13;;;2.69;93.10
49827;BME280;35715;51.570;6.036;2023-02-15T05:10:14;102636.06;;;2.70;93.25
49827;BME280;35715;51.570;6.036;2023-02-15T05:12:39;102634.72;;;2.66;92.75
49827;BME280;35715;51.570;6.036;2023-02-15T05:15:05;102624.50;;;2.79;92.19
49827;BME280;35715;51.570;6.036;2023-02-15T05:17:30;102627.75;;;2.78;92.09
49827;BME280;35715;51.570;6.036;2023-02-15T05:19:55;102620.97;;;2.71;92.89
49827;BME280;35715;51.570;6.036;2023-02-15T05:22:21;102620.00;;;2.63;93.49
49827;BME280;35715;51.570;6.036;2023-02-15T05:24:46;102616.03;;;2.53;93.69
49827;BME280;35715;51.570;6.036;2023-02-15T05:27:30;102618.94;;;2.69;92.75
49827;BME280;35715;51.570;6.036;2023-02-15T05:30:14;102616.00;;;2.65;92.70
49827;BME280;35715;51.570;6.036;2023-02-15T05:32:39;102604.47;;;2.62;92.78
49827;BME280;35715;51.570;6.036;2023-02-15T05:35:05;102606.31;;;2.63;92.43
49827;BME280;35715;51.570;6.036;2023-02-15T05:37:31;102600.50;;;2.64;92.22
49827;BME280;35715;51.570;6.036;2023-02-15T05:39:56;102602.94;;;2.70;91.68
49827;BME280;35715;51.570;6.036;2023-02-15T05:42:21;102601.16;;;2.76;91.22
49827;BME280;35715;51.570;6.036;2023-02-15T05:44:46;102601.47;;;2.72;91.35
49827;BME280;35715;51.570;6.036;2023-02-15T05:47:12;102602.66;;;2.61;92.29
49827;BME280;35715;51.570;6.036;2023-02-15T05:49:37;102604.69;;;2.63;91.68
49827;BME280;35715;51.570;6.036;2023-02-15T05:52:03;102601.03;;;2.61;91.53
49827;BME280;35715;51.570;6.036;2023-02-15T05:54:28;102600.81;;;2.60;91.92
49827;BME280;35715;51.570;6.036;2023-02-15T05:56:53;102598.56;;;2.48;92.08
49827;BME280;35715;51.570;6.036;2023-02-15T05:59:19;102605.72;;;2.58;91.47
49827;BME280;35715;51.570;6.036;2023-02-15T06:01:44;102603.38;;;2.60;91.56
49827;BME280;35715;51.570;6.036;2023-02-15T06:04:09;102608.06;;;2.57;91.82
49827;BME280;35715;51.570;6.036;2023-02-15T06:06:36;102605.72;;;2.58;91.63
49827;BME280;35715;51.570;6.036;2023-02-15T06:09:01;102609.16;;;2.59;91.88
49827;BME280;35715;51.570;6.036;2023-02-15T06:11:27;102613.63;;;2.47;92.45
49827;BME280;35715;51.570;6.036;2023-02-15T06:13:52;102607.69;;;2.54;92.05
49827;BME280;35715;51.570;6.036;2023-02-15T06:18:52;102621.13;;;2.53;92.14
49827;BME280;35715;51.570;6.036;2023-02-15T06:21:18;102622.06;;;2.53;91.31
49827;BME280;35715;51.570;6.036;2023-02-15T06:23:43;102612.00;;;2.47;91.53
49827;BME280;35715;51.570;6.036;2023-02-15T06:26:12;102613.47;;;2.33;93.68
49827;BME280;35715;51.570;6.036;2023-02-15T06:28:37;102609.69;;;2.36;93.05
49827;BME280;35715;51.570;6.036;2023-02-15T06:31:03;102605.25;;;2.28;93.50
49827;BME280;35715;51.570;6.036;2023-02-15T06:33:28;102610.84;;;2.25;93.33
49827;BME280;35715;51.570;6.036;2023-02-15T06:35:55;102611.41;;;2.23;93.62
49827;BME280;35715;51.570;6.036;2023-02-15T06:38:21;102606.50;;;2.24;93.43
49827;BME280;35715;51.570;6.036;2023-02-15T06:40:46;102609.72;;;2.03;93.99
49827;BME280;35715;51.570;6.036;2023-02-15T06:43:11;102612.13;;;2.09;94.27
49827;BME280;35715;51.570;6.036;2023-02-15T06:48:05;102616.03;;;2.00;94.87
49827;BME280;35715;51.570;6.036;2023-02-15T06:50:33;102606.25;;;2.03;94.70
49827;BME280;35715;51.570;6.036;2023-02-15T06:52:58;102613.66;;;2.14;94.44
49827;BME280;35715;51.570;6.036;2023-02-15T06:55:24;102603.94;;;2.24;93.63
49827;BME280;35715;51.570;6.036;2023-02-15T06:57:49;102611.00;;;2.20;93.82
49827;BME280;35715;51.570;6.036;2023-02-15T07:00:14;102612.03;;;2.35;92.95
49827;BME280;35715;51.570;6.036;2023-02-15T07:02:39;102603.75;;;2.43;92.49
49827;BME280;35715;51.570;6.036;2023-02-15T07:05:04;102603.06;;;2.44;92.13
49827;BME280;35715;51.570;6.036;2023-02-15T07:07:30;102608.97;;;2.37;92.20
49827;BME280;35715;51.570;6.036;2023-02-15T07:09:55;102597.69;;;2.35;92.16
49827;BME280;35715;51.570;6.036;2023-02-15T07:12:20;102596.91;;;2.29;92.60
49827;BME280;35715;51.570;6.036;2023-02-15T07:15:04;102595.72;;;2.20;93.45
49827;BME280;35715;51.570;6.036;2023-02-15T07:17:31;102604.19;;;2.13;93.63
49827;BME280;35715;51.570;6.036;2023-02-15T07:19:57;102599.47;;;2.16;93.78
49827;BME280;35715;51.570;6.036;2023-02-15T07:22:22;102595.91;;;2.21;93.92
49827;BME280;35715;51.570;6.036;2023-02-15T07:24:47;102589.56;;;2.25;93.59
49827;BME280;35715;51.570;6.036;2023-02-15T07:29:43;102586.25;;;2.39;92.90
49827;BME280;35715;51.570;6.036;2023-02-15T07:32:08;102581.94;;;2.25;94.52
49827;BME280;35715;51.570;6.036;2023-02-15T07:34:33;102584.22;;;2.36;93.90
49827;BME280;35715;51.570;6.036;2023-02-15T07:37:16;102586.75;;;2.36;94.07
49827;BME280;35715;51.570;6.036;2023-02-15T07:39:41;102587.78;;;2.44;93.74
49827;BME280;35715;51.570;6.036;2023-02-15T07:42:06;102582.31;;;2.48;93.31
49827;BME280;35715;51.570;6.036;2023-02-15T07:44:31;102584.63;;;2.59;92.84
49827;BME280;35715;51.570;6.036;2023-02-15T07:46:57;102575.72;;;2.63;93.11
49827;BME280;35715;51.570;6.036;2023-02-15T07:49:22;102580.50;;;2.67;92.76
49827;BME280;35715;51.570;6.036;2023-02-15T07:51:48;102574.56;;;2.54;93.54
49827;BME280;35715;51.570;6.036;2023-02-15T07:54:13;102578.00;;;2.54;93.30
49827;BME280;35715;51.570;6.036;2023-02-15T07:56:39;102573.75;;;2.67;92.55
49827;BME280;35715;51.570;6.036;2023-02-15T07:59:04;102575.28;;;2.73;91.65
49827;BME280;35715;51.570;6.036;2023-02-15T08:01:34;102575.19;;;2.86;91.45
49827;BME280;35715;51.570;6.036;2023-02-15T08:04:00;102568.94;;;2.76;91.69
49827;BME280;35715;51.570;6.036;2023-02-15T08:08:54;102566.72;;;2.99;90.63
49827;BME280;35715;51.570;6.036;2023-02-15T08:11:20;102558.97;;;3.12;90.20
49827;BME280;35715;51.570;6.036;2023-02-15T08:13:59;102560.97;;;3.08;90.22
49827;BME280;35715;51.570;6.036;2023-02-15T08:19:00;102559.84;;;3.06;91.11
49827;BME280;35715;51.570;6.036;2023-02-15T08:21:27;102555.09;;;3.01;91.18
49827;BME280;35715;51.570;6.036;2023-02-15T08:23:53;102553.75;;;3.18;90.35
49827;BME280;35715;51.570;6.036;2023-02-15T08:26:18;102549.78;;;3.34;90.00
49827;BME280;35715;51.570;6.036;2023-02-15T08:28:43;102548.91;;;3.34;89.70
49827;BME280;35715;51.570;6.036;2023-02-15T08:31:10;102541.69;;;3.59;89.20
49827;BME280;35715;51.570;6.036;2023-02-15T08:33:36;102535.16;;;3.68;88.85
49827;BME280;35715;51.570;6.036;2023-02-15T08:36:05;102539.16;;;3.59;89.92
49827;BME280;35715;51.570;6.036;2023-02-15T08:38:30;102535.69;;;3.58;89.41
49827;BME280;35715;51.570;6.036;2023-02-15T08:40:56;102539.53;;;3.62;89.86
49827;BME280;35715;51.570;6.036;2023-02-15T08:43:21;102538.25;;;3.58;89.77
49827;BME280;35715;51.570;6.036;2023-02-15T08:45:57;102539.44;;;3.82;89.22
49827;BME280;35715;51.570;6.036;2023-02-15T08:48:22;102544.75;;;3.98;88.11
49827;BME280;35715;51.570;6.036;2023-02-15T08:50:47;102543.50;;;4.16;87.73
49827;BME280;35715;51.570;6.036;2023-02-15T08:53:12;102539.16;;;4.29;86.97
49827;BME280;35715;51.570;6.036;2023-02-15T08:55:42;102544.28;;;4.36;86.29
49827;BME280;35715;51.570;6.036;2023-02-15T08:58:08;102551.22;;;4.30;85.33
49827;BME280;35715;51.570;6.036;2023-02-15T09:00:33;102540.44;;;4.40;85.60
49827;BME280;35715;51.570;6.036;2023-02-15T09:02:58;102535.16;;;4.53;85.72
49827;BME280;35715;51.570;6.036;2023-02-15T09:05:23;102532.22;;;4.64;85.48
49827;BME280;35715;51.570;6.036;2023-02-15T09:07:49;102528.91;;;4.79;85.58
49827;BME280;35715;51.570;6.036;2023-02-15T09:10:14;102528.91;;;4.87;85.11
49827;BME280;35715;51.570;6.036;2023-02-15T09:12:39;102524.88;;;4.89;85.49
49827;BME280;35715;51.570;6.036;2023-02-15T09:15:04;102522.50;;;4.90;86.29
49827;BME280;35715;51.570;6.036;2023-02-15T09:17:30;102512.97;;;4.96;86.84
49827;BME280;35715;51.570;6.036;2023-02-15T09:19:55;102520.63;;;5.18;85.15
49827;BME280;35715;51.570;6.036;2023-02-15T09:22:20;102514.69;;;5.41;84.52
49827;BME280;35715;51.570;6.036;2023-02-15T09:24:45;102514.28;;;5.52;83.44
49827;BME280;35715;51.570;6.036;2023-02-15T09:27:12;102513.97;;;5.72;83.47
49827;BME280;35715;51.570;6.036;2023-02-15T09:29:37;102515.06;;;5.81;82.10
49827;BME280;35715;51.570;6.036;2023-02-15T09:32:02;102519.38;;;5.97;82.29
49827;BME280;35715;51.570;6.036;2023-02-15T09:34:28;102516.91;;;6.06;80.96
49827;BME280;35715;51.570;6.036;2023-02-15T09:36:53;102523.19;;;6.24;81.42
49827;BME280;35715;51.570;6.036;2023-02-15T09:39:22;102525.00;;;6.32;80.20
49827;BME280;35715;51.570;6.036;2023-02-15T09:46:56;102518.06;;;6.70;80.49
49827;BME280;35715;51.570;6.036;2023-02-15T09:54:33;102507.56;;;8.45;73.86
49827;BME280;35715;51.570;6.036;2023-02-15T09:57:03;102510.84;;;8.78;71.55
49827;BME280;35715;51.570;6.036;2023-02-15T09:59:36;102503.34;;;9.05;69.02
49827;BME280;35715;51.570;6.036;2023-02-15T10:04:50;102500.03;;;9.76;66.86
49827;BME280;35715;51.570;6.036;2023-02-15T10:15:57;102502.81;;;11.34;63.90
49827;BME280;35715;51.570;6.036;2023-02-15T10:18:38;102497.03;;;12.04;62.07
49827;BME280;35715;51.570;6.036;2023-02-15T10:21:50;102495.22;;;12.43;57.81
49827;BME280;35715;51.570;6.036;2023-02-15T10:26:42;102484.25;;;13.07;55.00
49827;BME280;35715;51.570;6.036;2023-02-15T10:29:18;102492.53;;;13.44;55.67
49827;BME280;35715;51.570;6.036;2023-02-15T10:34:23;102483.28;;;14.23;53.29
49827;BME280;35715;51.570;6.036;2023-02-15T10:42:07;102478.69;;;15.33;48.75
49827;BME280;35715;51.570;6.036;2023-02-15T10:55:18;102472.88;;;17.34;43.24
49827;BME280;35715;51.570;6.036;2023-02-15T10:58:04;102472.06;;;17.48;44.13
49827;BME280;35715;51.570;6.036;2023-02-15T11:05:41;102463.84;;;18.52;39.38
49827;BME280;35715;51.570;6.036;2023-02-15T11:08:08;102457.44;;;18.47;40.75
49827;BME280;35715;51.570;6.036;2023-02-15T11:13:04;102459.78;;;18.86;40.31
49827;BME280;35715;51.570;6.036;2023-02-15T11:18:06;102456.06;;;19.42;40.50
49827;BME280;35715;51.570;6.036;2023-02-15T11:20:38;102459.38;;;19.39;40.13
49827;BME280;35715;51.570;6.036;2023-02-15T11:23:16;102450.75;;;19.40;40.41
49827;BME280;35715;51.570;6.036;2023-02-15T11:25:44;102450.22;;;19.16;39.69
49827;BME280;35715;51.570;6.036;2023-02-15T11:28:16;102449.19;;;18.84;39.56
49827;BME280;35715;51.570;6.036;2023-02-15T11:30:43;102440.44;;;18.84;39.67
49827;BME280;35715;51.570;6.036;2023-02-15T11:33:44;102444.44;;;19.37;39.85
49827;BME280;35715;51.570;6.036;2023-02-15T11:36:08;102428.56;;;19.04;38.57
49827;BME280;35715;51.570;6.036;2023-02-15T11:38:34;102435.66;;;18.76;39.60
49827;BME280;35715;51.570;6.036;2023-02-15T11:41:07;102434.97;;;19.09;40.19
49827;BME280;35715;51.570;6.036;2023-02-15T11:43:39;102430.44;;;19.67;38.61
49827;BME280;35715;51.570;6.036;2023-02-15T11:46:11;102430.84;;;19.44;37.56
49827;BME280;35715;51.570;6.036;2023-02-15T11:48:37;102424.22;;;19.19;38.44
49827;BME280;35715;51.570;6.036;2023-02-15T11:51:02;102419.84;;;20.12;39.35
49827;BME280;35715;51.570;6.036;2023-02-15T11:53:28;102414.63;;;20.80;38.36
49827;BME280;35715;51.570;6.036;2023-02-15T11:55:56;102402.38;;;21.51;37.53
49827;BME280;35715;51.570;6.036;2023-02-15T12:00:52;102396.25;;;21.50;35.89
49827;BME280;35715;51.570;6.036;2023-02-15T12:03:22;102398.56;;;21.08;36.72
49827;BME280;35715;51.570;6.036;2023-02-15T12:05:57;102400.34;;;21.27;36.58
49827;BME280;35715;51.570;6.036;2023-02-15T12:08:25;102401.28;;;20.75;36.65
49827;BME280;35715;51.570;6.036;2023-02-15T12:11:02;102400.00;;;20.34;37.29
49827;BME280;35715;51.570;6.036;2023-02-15T12:13:30;102393.09;;;20.36;36.02
49827;BME280;35715;51.570;6.036;2023-02-15T12:15:58;102387.53;;;20.30;36.86
49827;BME280;35715;51.570;6.036;2023-02-15T12:18:42;102390.94;;;20.62;37.40
49827;BME280;35715;51.570;6.036;2023-02-15T12:21:14;102378.22;;;21.40;34.73
49827;BME280;35715;51.570;6.036;2023-02-15T12:23:52;102373.63;;;21.00;33.84
49827;BME280;35715;51.570;6.036;2023-02-15T12:28:51;102361.03;;;21.84;34.59
49827;BME280;35715;51.570;6.036;2023-02-15T12:31:27;102350.72;;;21.69;34.53
49827;BME280;35715;51.570;6.036;2023-02-15T12:33:56;102350.22;;;21.40;35.17
49827;BME280;35715;51.570;6.036;2023-02-15T12:39:02;102350.09;;;20.83;35.70
49827;BME280;35715;51.570;6.036;2023-02-15T12:41:29;102339.81;;;21.06;34.55
49827;BME280;35715;51.570;6.036;2023-02-15T12:44:09;102344.16;;;20.87;34.88
49827;BME280;35715;51.570;6.036;2023-02-15T12:46:42;102344.84;;;20.65;36.31
49827;BME280;35715;51.570;6.036;2023-02-15T12:49:20;102339.63;;;20.83;36.98
49827;BME280;35715;51.570;6.036;2023-02-15T12:51:48;102339.22;;;20.41;35.38
49827;BME280;35715;51.570;6.036;2023-02-15T12:56:44;102336.44;;;20.72;36.43
49827;BME280;35715;51.570;6.036;2023-02-15T12:59:10;102341.53;;;20.69;36.38
49827;BME280;35715;51.570;6.036;2023-02-15T13:01:37;102334.97;;;20.61;35.75
49827;BME280;35715;51.570;6.036;2023-02-15T13:04:04;102338.91;;;20.69;36.75
49827;BME280;35715;51.570;6.036;2023-02-15T13:06:32;102324.25;;;20.56;37.22
49827;BME280;35715;51.570;6.036;2023-02-15T13:09:07;102326.94;;;20.24;37.30
49827;BME280;35715;51.570;6.036;2023-02-15T13:11:39;102323.88;;;19.66;37.54
49827;BME280;35715;51.570;6.036;2023-02-15T13:14:17;102319.81;;;19.24;37.77
49827;BME280;35715;51.570;6.036;2023-02-15T13:16:44;102320.44;;;19.20;38.98
49827;BME280;35715;51.570;6.036;2023-02-15T13:19:26;102324.09;;;19.07;39.45
49827;BME280;35715;51.570;6.036;2023-02-15T13:21:54;102314.72;;;18.95;38.83
49827;BME280;35715;51.570;6.036;2023-02-15T13:24:24;102312.41;;;18.70;39.01
49827;BME280;35715;51.570;6.036;2023-02-15T13:26:57;102307.00;;;18.52;39.34
49827;BME280;35715;51.570;6.036;2023-02-15T13:29:27;102312.41;;;18.40;39.63
49827;BME280;35715;51.570;6.036;2023-02-15T13:31:53;102315.00;;;18.25;39.85
49827;BME280;35715;51.570;6.036;2023-02-15T13:34:32;102315.06;;;18.12;40.50
49827;BME280;35715;51.570;6.036;2023-02-15T13:42:30;102300.66;;;17.62;39.72
49827;BME280;35715;51.570;6.036;2023-02-15T13:52:41;102290.56;;;17.12;40.00
49827;BME280;35715;51.570;6.036;2023-02-15T13:58:08;102280.63;;;16.66;41.82
49827;BME280;35715;51.570;6.036;2023-02-15T14:00:48;102277.13;;;16.65;42.38
49827;BME280;35715;51.570;6.036;2023-02-15T14:08:36;102267.84;;;16.17;41.97
49827;BME280;35715;51.570;6.036;2023-02-15T14:11:12;102268.25;;;16.23;42.14
49827;BME280;35715;51.570;6.036;2023-02-15T14:18:44;102264.72;;;16.23;42.05
49827;BME280;35715;51.570;6.036;2023-02-15T14:28:58;102265.53;;;16.22;43.58
49827;BME280;35715;51.570;6.036;2023-02-15T14:31:30;102262.22;;;16.24;43.12
49827;BME280;35715;51.570;6.036;2023-02-15T14:33:58;102267.22;;;16.21;43.07
49827;BME280;35715;51.570;6.036;2023-02-15T14:36:26;102266.06;;;16.29;43.28
49827;BME280;35715;51.570;6.036;2023-02-15T14:41:59;102269.25;;;16.25;42.91
49827;BME280;35715;51.570;6.036;2023-02-15T14:44:38;102268.34;;;16.25;43.42
49827;BME280;35715;51.570;6.036;2023-02-15T14:47:15;102279.44;;;16.22;42.53
49827;BME280;35715;51.570;6.036;2023-02-15T14:49:43;102277.53;;;16.20;43.21
49827;BME280;35715;51.570;6.036;2023-02-15T14:52:09;102274.78;;;16.05;42.84
49827;BME280;35715;51.570;6.036;2023-02-15T15:09:45;102284.25;;;15.91;44.57
49827;BME280;35715;51.570;6.036;2023-02-15T15:14:47;102284.16;;;15.89;44.99
49827;BME280;35715;51.570;6.036;2023-02-15T15:17:51;102284.25;;;15.91;45.36
49827;BME280;35715;51.570;6.036;2023-02-15T15:22:27;102284.53;;;15.82;45.55
49827;BME280;35715;51.570;6.036;2023-02-15T15:25:01;102288.72;;;15.80;45.44
49827;BME280;35715;51.570;6.036;2023-02-15T15:35:13;102287.75;;;15.54;46.18
49827;BME280;35715;51.570;6.036;2023-02-15T15:38:26;102289.47;;;15.54;46.21
49827;BME280;35715;51.570;6.036;2023-02-15T15:43:34;102282.13;;;15.48;46.73
49827;BME280;35715;51.570;6.036;2023-02-15T15:48:33;102290.16;;;15.39;47.06
49827;BME280;35715;51.570;6.036;2023-02-15T15:51:00;102282.88;;;15.34;47.41
49827;BME280;35715;51.570;6.036;2023-02-15T15:53:27;102286.81;;;15.29;47.58
49827;BME280;35715;51.570;6.036;2023-02-15T15:56:03;102276.88;;;15.23;47.44
49827;BME280;35715;51.570;6.036;2023-02-15T15:58:30;102283.34;;;15.16;47.81
49827;BME280;35715;51.570;6.036;2023-02-15T16:01:14;102273.50;;;15.12;47.83
49827;BME280;35715;51.570;6.036;2023-02-15T16:03:52;102271.16;;;15.03;48.32
49827;BME280;35715;51.570;6.036;2023-02-15T16:09:10;102264.72;;;14.86;48.14
49827;BME280;35715;51.570;6.036;2023-02-15T16:11:36;102260.53;;;14.77;47.89
49827;BME280;35715;51.570;6.036;2023-02-15T16:14:08;102268.78;;;14.71;48.17
49827;BME280;35715;51.570;6.036;2023-02-15T16:16:34;102273.53;;;14.65;48.36
49827;BME280;35715;51.570;6.036;2023-02-15T16:18:59;102269.00;;;14.62;48.35